sensor_id;sensor_type;location;lat;lon;timestamp;P1;durP1;ratioP1;P2;durP2;ratioP2
21503;SDS011;10913;51.992;9.228;2022-12-18T00:00:55;11.82;;;7.75;;
21503;SDS011;10913;51.992;9.228;2022-12-18T00:03:20;10.85;;;7.80;;
21503;SDS011;10913;51.992;9.228;2022-12-18T00:05:49;12.48;;;8.52;;
21503;SDS011;10913;51.992;9.228;2022-12-18T00:08:16;14.75;;;10.57;;
21503;SDS011;10913;51.992;9.228;2022-12-18T00:10:42;15.57;;;10.40;;
21503;SDS011;10913;51.992;9.228;2022-12-18T00:13:08;16.75;;;10.20;;
21503;SDS011;10913;51.992;9.228;2022-12-18T00:15:34;14.82;;;10.25;;
21503;SDS011;10913;51.992;9.228;2022-12-18T00:18:00;17.00;;;10.80;;
21503;SDS011;10913;51.992;9.228;2022-12-18T00:20:26;18.15;;;11.38;;
21503;SDS011;10913;51.992;9.228;2022-12-18T00:22:51;15.65;;;10.25;;
21503;SDS011;10913;51.992;9.228;2022-12-18T00:25:17;13.88;;;9.05;;
21503;SDS011;10913;51.992;9.228;2022-12-18T00:27:43;13.88;;;9.15;;
21503;SDS011;10913;51.992;9.228;2022-12-18T00:30:08;14.43;;;9.20;;
21503;SDS011;10913;51.992;9.228;2022-12-18T00:32:34;13.68;;;9.07;;
21503;SDS011;10913;51.992;9.228;2022-12-18T00:35:00;13.23;;;8.70;;
21503;SDS011;10913;51.992;9.228;2022-12-18T00:37:25;11.10;;;8.43;;
21503;SDS011;10913;51.992;9.228;2022-12-18T00:39:51;12.77;;;8.85;;
21503;SDS011;10913;51.992;9.228;2022-12-18T00:42:16;12.27;;;8.88;;
21503;SDS011;10913;51.992;9.228;2022-12-18T00:45:00;13.52;;;9.20;;
21503;SDS011;10913;51.992;9.228;2022-12-18T00:47:25;11.88;;;8.02;;
21503;SDS011;10913;51.992;9.228;2022-12-18T00:49:51;12.63;;;8.70;;
21503;SDS011;10913;51.992;9.228;2022-12-18T00:52:16;12.18;;;8.60;;
21503;SDS011;10913;51.992;9.228;2022-12-18T00:54:41;14.90;;;9.35;;
21503;SDS011;10913;51.992;9.228;2022-12-18T00:57:07;13.25;;;9.00;;
21503;SDS011;10913;51.992;9.228;2022-12-18T00:59:32;14.32;;;9.52;;
21503;SDS011;10913;51.992;9.228;2022-12-18T01:01:57;15.98;;;10.68;;
21503;SDS011;10913;51.992;9.228;2022-12-18T01:04:23;14.88;;;9.93;;
21503;SDS011;10913;51.992;9.228;2022-12-18T01:06:48;12.85;;;9.73;;
21503;SDS011;10913;51.992;9.228;2022-12-18T01:09:13;13.35;;;10.23;;
21503;SDS011;10913;51.992;9.228;2022-12-18T01:11:39;16.38;;;9.77;;
21503;SDS011;10913;51.992;9.228;2022-12-18T01:14:05;14.35;;;9.60;;
21503;SDS011;10913;51.992;9.228;2022-12-18T01:16:30;14.52;;;10.38;;
21503;SDS011;10913;51.992;9.228;2022-12-18T01:18:56;15.60;;;10.20;;
21503;SDS011;10913;51.992;9.228;2022-12-18T01:21:22;14.05;;;9.90;;
21503;SDS011;10913;51.992;9.228;2022-12-18T01:23:50;14.13;;;9.90;;
21503;SDS011;10913;51.992;9.228;2022-12-18T01:26:17;13.60;;;9.85;;
21503;SDS011;10913;51.992;9.228;2022-12-18T01:28:42;13.93;;;9.35;;
21503;SDS011;10913;51.992;9.228;2022-12-18T01:31:09;16.33;;;10.93;;
21503;SDS011;10913;51.992;9.228;2022-12-18T01:33:36;14.50;;;10.52;;
21503;SDS011;10913;51.992;9.228;2022-12-18T01:36:01;15.40;;;10.38;;
21503;SDS011;10913;51.992;9.228;2022-12-18T01:38:28;14.00;;;9.57;;
21503;SDS011;10913;51.992;9.228;2022-12-18T01:40:57;14.40;;;10.25;;
21503;SDS011;10913;51.992;9.228;2022-12-18T01:43:40;15.43;;;9.95;;
21503;SDS011;10913;51.992;9.228;2022-12-18T01:46:06;14.43;;;9.75;;
21503;SDS011;10913;51.992;9.228;2022-12-18T01:48:31;15.25;;;9.50;;
21503;SDS011;10913;51.992;9.228;2022-12-18T01:50:57;13.27;;;9.57;;
21503;SDS011;10913;51.992;9.228;2022-12-18T01:53:25;14.65;;;9.60;;
21503;SDS011;10913;51.992;9.228;2022-12-18T01:55:54;14.40;;;10.18;;
21503;SDS011;10913;51.992;9.228;2022-12-18T01:58:23;15.77;;;10.50;;
21503;SDS011;10913;51.992;9.228;2022-12-18T02:00:57;15.00;;;10.98;;
21503;SDS011;10913;51.992;9.228;2022-12-18T02:03:22;12.82;;;9.10;;
21503;SDS011;10913;51.992;9.228;2022-12-18T02:08:43;14.23;;;10.38;;
21503;SDS011;10913;51.992;9.228;2022-12-18T02:11:21;15.52;;;10.25;;
21503;SDS011;10913;51.992;9.228;2022-12-18T02:28:34;12.57;;;9.27;;
21503;SDS011;10913;51.992;9.228;2022-12-18T02:31:06;14.88;;;10.20;;
21503;SDS011;10913;51.992;9.228;2022-12-18T02:33:36;14.77;;;10.38;;
21503;SDS011;10913;51.992;9.228;2022-12-18T02:36:03;14.05;;;10.25;;
21503;SDS011;10913;51.992;9.228;2022-12-18T02:38:30;13.77;;;10.32;;
21503;SDS011;10913;51.992;9.228;2022-12-18T02:40:57;13.77;;;9.40;;
21503;SDS011;10913;51.992;9.228;2022-12-18T02:43:23;14.25;;;9.57;;
21503;SDS011;10913;51.992;9.228;2022-12-18T02:48:17;15.45;;;9.68;;
21503;SDS011;10913;51.992;9.228;2022-12-18T02:53:27;16.15;;;10.40;;
21503;SDS011;10913;51.992;9.228;2022-12-18T02:56:03;13.38;;;9.30;;
21503;SDS011;10913;51.992;9.228;2022-12-18T02:58:47;12.73;;;9.23;;
21503;SDS011;10913;51.992;9.228;2022-12-18T03:01:38;11.48;;;9.07;;
21503;SDS011;10913;51.992;9.228;2022-12-18T03:07:20;13.95;;;9.38;;
21503;SDS011;10913;51.992;9.228;2022-12-18T03:09:53;12.75;;;9.13;;
21503;SDS011;10913;51.992;9.228;2022-12-18T03:12:24;12.00;;;8.63;;
21503;SDS011;10913;51.992;9.228;2022-12-18T03:15:06;13.98;;;9.25;;
21503;SDS011;10913;51.992;9.228;2022-12-18T03:17:35;14.15;;;9.02;;
21503;SDS011;10913;51.992;9.228;2022-12-18T03:20:10;13.30;;;9.18;;
21503;SDS011;10913;51.992;9.228;2022-12-18T03:22:43;12.50;;;9.57;;
21503;SDS011;10913;51.992;9.228;2022-12-18T03:25:13;12.52;;;8.60;;
21503;SDS011;10913;51.992;9.228;2022-12-18T03:27:41;12.02;;;9.07;;
21503;SDS011;10913;51.992;9.228;2022-12-18T03:30:10;13.38;;;9.00;;
21503;SDS011;10913;51.992;9.228;2022-12-18T03:35:28;14.45;;;9.90;;
21503;SDS011;10913;51.992;9.228;2022-12-18T03:37:57;12.80;;;9.13;;
21503;SDS011;10913;51.992;9.228;2022-12-18T03:40:26;12.50;;;9.02;;
21503;SDS011;10913;51.992;9.228;2022-12-18T03:43:26;12.82;;;9.18;;
21503;SDS011;10913;51.992;9.228;2022-12-18T03:46:17;15.02;;;9.98;;
21503;SDS011;10913;51.992;9.228;2022-12-18T03:49:13;14.70;;;9.40;;
21503;SDS011;10913;51.992;9.228;2022-12-18T03:51:52;12.57;;;9.35;;
21503;SDS011;10913;51.992;9.228;2022-12-18T03:54:22;14.55;;;9.77;;
21503;SDS011;10913;51.992;9.228;2022-12-18T03:56:54;11.77;;;8.70;;
21503;SDS011;10913;51.992;9.228;2022-12-18T03:59:24;15.65;;;10.05;;
21503;SDS011;10913;51.992;9.228;2022-12-18T04:01:51;13.35;;;9.63;;
21503;SDS011;10913;51.992;9.228;2022-12-18T04:04:18;13.07;;;8.90;;
21503;SDS011;10913;51.992;9.228;2022-12-18T04:06:46;12.10;;;9.35;;
21503;SDS011;10913;51.992;9.228;2022-12-18T04:09:14;12.75;;;8.88;;
21503;SDS011;10913;51.992;9.228;2022-12-18T04:11:41;14.52;;;9.27;;
21503;SDS011;10913;51.992;9.228;2022-12-18T04:14:09;14.48;;;9.20;;
21503;SDS011;10913;51.992;9.228;2022-12-18T04:16:34;12.98;;;9.07;;
21503;SDS011;10913;51.992;9.228;2022-12-18T04:18:59;12.45;;;8.52;;
21503;SDS011;10913;51.992;9.228;2022-12-18T04:21:25;12.65;;;9.07;;
21503;SDS011;10913;51.992;9.228;2022-12-18T04:23:50;12.07;;;8.63;;
21503;SDS011;10913;51.992;9.228;2022-12-18T04:26:15;13.38;;;8.77;;
21503;SDS011;10913;51.992;9.228;2022-12-18T04:28:41;11.80;;;8.73;;
21503;SDS011;10913;51.992;9.228;2022-12-18T04:31:06;12.07;;;8.68;;
21503;SDS011;10913;51.992;9.228;2022-12-18T04:33:32;13.85;;;9.10;;
21503;SDS011;10913;51.992;9.228;2022-12-18T04:35:57;13.23;;;9.25;;
21503;SDS011;10913;51.992;9.228;2022-12-18T04:38:23;14.07;;;9.45;;
21503;SDS011;10913;51.992;9.228;2022-12-18T04:40:48;14.10;;;9.32;;
21503;SDS011;10913;51.992;9.228;2022-12-18T04:43:13;13.25;;;8.80;;
21503;SDS011;10913;51.992;9.228;2022-12-18T04:45:39;13.73;;;9.35;;
21503;SDS011;10913;51.992;9.228;2022-12-18T04:48:04;16.52;;;11.15;;
21503;SDS011;10913;51.992;9.228;2022-12-18T04:50:30;25.58;;;15.90;;
21503;SDS011;10913;51.992;9.228;2022-12-18T04:52:55;43.65;;;30.98;;
21503;SDS011;10913;51.992;9.228;2022-12-18T04:55:21;41.75;;;31.52;;
21503;SDS011;10913;51.992;9.228;2022-12-18T04:57:47;31.15;;;23.20;;
21503;SDS011;10913;51.992;9.228;2022-12-18T05:00:12;25.63;;;19.23;;
21503;SDS011;10913;51.992;9.228;2022-12-18T05:02:38;26.15;;;17.98;;
21503;SDS011;10913;51.992;9.228;2022-12-18T05:05:04;21.92;;;15.48;;
21503;SDS011;10913;51.992;9.228;2022-12-18T05:07:29;21.85;;;15.45;;
21503;SDS011;10913;51.992;9.228;2022-12-18T05:09:55;21.00;;;14.38;;
21503;SDS011;10913;51.992;9.228;2022-12-18T05:12:20;20.60;;;13.98;;
21503;SDS011;10913;51.992;9.228;2022-12-18T05:14:45;19.98;;;14.45;;
21503;SDS011;10913;51.992;9.228;2022-12-18T05:17:11;20.23;;;13.80;;
21503;SDS011;10913;51.992;9.228;2022-12-18T05:19:36;18.38;;;13.02;;
21503;SDS011;10913;51.992;9.228;2022-12-18T05:22:02;18.55;;;12.65;;
21503;SDS011;10913;51.992;9.228;2022-12-18T05:24:27;16.55;;;11.95;;
21503;SDS011;10913;51.992;9.228;2022-12-18T05:26:52;16.52;;;12.23;;
21503;SDS011;10913;51.992;9.228;2022-12-18T05:29:18;17.40;;;12.02;;
21503;SDS011;10913;51.992;9.228;2022-12-18T05:31:43;17.02;;;11.80;;
21503;SDS011;10913;51.992;9.228;2022-12-18T05:34:08;16.45;;;10.77;;
21503;SDS011;10913;51.992;9.228;2022-12-18T05:36:34;16.13;;;11.48;;
21503;SDS011;10913;51.992;9.228;2022-12-18T05:38:59;14.30;;;9.95;;
21503;SDS011;10913;51.992;9.228;2022-12-18T05:41:25;15.27;;;10.10;;
21503;SDS011;10913;51.992;9.228;2022-12-18T05:43:51;13.05;;;10.23;;
21503;SDS011;10913;51.992;9.228;2022-12-18T05:46:16;14.82;;;9.88;;
21503;SDS011;10913;51.992;9.228;2022-12-18T05:48:45;15.63;;;10.07;;
21503;SDS011;10913;51.992;9.228;2022-12-18T05:51:12;14.48;;;9.93;;
21503;SDS011;10913;51.992;9.228;2022-12-18T05:53:40;14.13;;;9.23;;
21503;SDS011;10913;51.992;9.228;2022-12-18T05:56:08;14.93;;;9.90;;
21503;SDS011;10913;51.992;9.228;2022-12-18T05:58:38;13.30;;;9.30;;
21503;SDS011;10913;51.992;9.228;2022-12-18T06:01:07;13.57;;;9.30;;
21503;SDS011;10913;51.992;9.228;2022-12-18T06:03:41;14.70;;;9.38;;
21503;SDS011;10913;51.992;9.228;2022-12-18T06:06:17;13.50;;;9.20;;
21503;SDS011;10913;51.992;9.228;2022-12-18T06:08:50;14.90;;;9.50;;
21503;SDS011;10913;51.992;9.228;2022-12-18T06:11:17;14.88;;;9.82;;
21503;SDS011;10913;51.992;9.228;2022-12-18T06:13:43;15.82;;;9.20;;
21503;SDS011;10913;51.992;9.228;2022-12-18T06:16:09;12.63;;;8.88;;
21503;SDS011;10913;51.992;9.228;2022-12-18T06:18:34;13.25;;;8.80;;
21503;SDS011;10913;51.992;9.228;2022-12-18T06:21:02;12.73;;;8.65;;
21503;SDS011;10913;51.992;9.228;2022-12-18T06:23:28;13.27;;;9.07;;
21503;SDS011;10913;51.992;9.228;2022-12-18T06:25:53;13.05;;;9.45;;
21503;SDS011;10913;51.992;9.228;2022-12-18T06:28:18;15.38;;;9.75;;
21503;SDS011;10913;51.992;9.228;2022-12-18T06:30:44;13.70;;;9.27;;
21503;SDS011;10913;51.992;9.228;2022-12-18T06:33:11;13.77;;;8.65;;
21503;SDS011;10913;51.992;9.228;2022-12-18T06:35:36;12.68;;;8.65;;
21503;SDS011;10913;51.992;9.228;2022-12-18T06:38:02;14.52;;;9.55;;
21503;SDS011;10913;51.992;9.228;2022-12-18T06:40:27;15.27;;;9.75;;
21503;SDS011;10913;51.992;9.228;2022-12-18T06:42:53;16.33;;;10.32;;
21503;SDS011;10913;51.992;9.228;2022-12-18T06:45:18;13.85;;;9.88;;
21503;SDS011;10913;51.992;9.228;2022-12-18T06:47:44;14.80;;;9.70;;
21503;SDS011;10913;51.992;9.228;2022-12-18T06:50:09;14.07;;;9.68;;
21503;SDS011;10913;51.992;9.228;2022-12-18T06:52:34;15.60;;;10.13;;
21503;SDS011;10913;51.992;9.228;2022-12-18T06:55:00;18.23;;;10.38;;
21503;SDS011;10913;51.992;9.228;2022-12-18T06:57:25;15.00;;;10.20;;
21503;SDS011;10913;51.992;9.228;2022-12-18T06:59:51;15.60;;;10.27;;
21503;SDS011;10913;51.992;9.228;2022-12-18T07:02:16;15.52;;;10.13;;
21503;SDS011;10913;51.992;9.228;2022-12-18T07:04:42;15.40;;;10.18;;
21503;SDS011;10913;51.992;9.228;2022-12-18T07:07:07;15.32;;;10.30;;
21503;SDS011;10913;51.992;9.228;2022-12-18T07:09:33;12.88;;;9.50;;
21503;SDS011;10913;51.992;9.228;2022-12-18T07:11:58;14.68;;;9.27;;
21503;SDS011;10913;51.992;9.228;2022-12-18T07:14:23;13.55;;;10.07;;
21503;SDS011;10913;51.992;9.228;2022-12-18T07:16:49;12.73;;;9.45;;
21503;SDS011;10913;51.992;9.228;2022-12-18T07:19:14;14.98;;;9.95;;
21503;SDS011;10913;51.992;9.228;2022-12-18T07:21:40;13.55;;;9.43;;
21503;SDS011;10913;51.992;9.228;2022-12-18T07:24:05;14.32;;;10.32;;
21503;SDS011;10913;51.992;9.228;2022-12-18T07:26:31;14.45;;;9.95;;
21503;SDS011;10913;51.992;9.228;2022-12-18T07:28:56;15.02;;;10.02;;
21503;SDS011;10913;51.992;9.228;2022-12-18T07:31:22;15.32;;;9.98;;
21503;SDS011;10913;51.992;9.228;2022-12-18T07:33:49;13.55;;;9.43;;
21503;SDS011;10913;51.992;9.228;2022-12-18T07:36:15;16.10;;;9.77;;
21503;SDS011;10913;51.992;9.228;2022-12-18T07:38:40;15.27;;;9.80;;
21503;SDS011;10913;51.992;9.228;2022-12-18T07:41:10;14.68;;;9.27;;
21503;SDS011;10913;51.992;9.228;2022-12-18T07:43:37;12.50;;;9.50;;
21503;SDS011;10913;51.992;9.228;2022-12-18T07:46:03;14.93;;;10.48;;
21503;SDS011;10913;51.992;9.228;2022-12-18T07:48:29;14.80;;;10.80;;
21503;SDS011;10913;51.992;9.228;2022-12-18T07:50:58;13.18;;;10.35;;
21503;SDS011;10913;51.992;9.228;2022-12-18T07:53:24;15.43;;;10.48;;
21503;SDS011;10913;51.992;9.228;2022-12-18T07:55:54;13.73;;;10.13;;
21503;SDS011;10913;51.992;9.228;2022-12-18T07:58:21;12.60;;;9.85;;
21503;SDS011;10913;51.992;9.228;2022-12-18T08:00:46;14.10;;;11.05;;
21503;SDS011;10913;51.992;9.228;2022-12-18T08:03:13;12.10;;;10.50;;
21503;SDS011;10913;51.992;9.228;2022-12-18T08:05:38;13.48;;;11.13;;
21503;SDS011;10913;51.992;9.228;2022-12-18T08:08:03;14.75;;;11.18;;
21503;SDS011;10913;51.992;9.228;2022-12-18T08:10:29;13.10;;;10.27;;
21503;SDS011;10913;51.992;9.228;2022-12-18T08:12:54;12.32;;;9.18;;
21503;SDS011;10913;51.992;9.228;2022-12-18T08:15:20;10.85;;;8.40;;
21503;SDS011;10913;51.992;9.228;2022-12-18T08:17:45;13.10;;;8.82;;
21503;SDS011;10913;51.992;9.228;2022-12-18T08:20:10;12.13;;;9.13;;
21503;SDS011;10913;51.992;9.228;2022-12-18T08:22:36;13.82;;;10.07;;
21503;SDS011;10913;51.992;9.228;2022-12-18T08:25:02;13.68;;;9.50;;
21503;SDS011;10913;51.992;9.228;2022-12-18T08:27:28;14.65;;;10.73;;
21503;SDS011;10913;51.992;9.228;2022-12-18T08:29:54;14.00;;;10.20;;
21503;SDS011;10913;51.992;9.228;2022-12-18T08:32:20;13.35;;;9.77;;
21503;SDS011;10913;51.992;9.228;2022-12-18T08:34:45;13.60;;;9.73;;
21503;SDS011;10913;51.992;9.228;2022-12-18T08:37:10;15.05;;;10.85;;
21503;SDS011;10913;51.992;9.228;2022-12-18T08:39:36;15.10;;;10.32;;
21503;SDS011;10913;51.992;9.228;2022-12-18T08:42:01;15.90;;;11.60;;
21503;SDS011;10913;51.992;9.228;2022-12-18T08:44:45;16.23;;;12.50;;
21503;SDS011;10913;51.992;9.228;2022-12-18T08:47:10;15.75;;;12.23;;
21503;SDS011;10913;51.992;9.228;2022-12-18T08:49:36;15.77;;;12.05;;
21503;SDS011;10913;51.992;9.228;2022-12-18T08:52:01;17.10;;;12.77;;
21503;SDS011;10913;51.992;9.228;2022-12-18T08:54:28;17.50;;;12.02;;
21503;SDS011;10913;51.992;9.228;2022-12-18T08:56:53;15.70;;;11.20;;
21503;SDS011;10913;51.992;9.228;2022-12-18T08:59:19;14.85;;;11.18;;
21503;SDS011;10913;51.992;9.228;2022-12-18T09:01:45;15.40;;;10.77;;
21503;SDS011;10913;51.992;9.228;2022-12-18T09:04:11;13.27;;;9.82;;
21503;SDS011;10913;51.992;9.228;2022-12-18T09:06:37;13.82;;;9.38;;
21503;SDS011;10913;51.992;9.228;2022-12-18T09:09:03;11.55;;;8.63;;
21503;SDS011;10913;51.992;9.228;2022-12-18T09:11:30;10.02;;;7.18;;
21503;SDS011;10913;51.992;9.228;2022-12-18T09:13:56;9.35;;;7.78;;
21503;SDS011;10913;51.992;9.228;2022-12-18T09:16:23;12.57;;;8.90;;
21503;SDS011;10913;51.992;9.228;2022-12-18T09:18:49;10.43;;;9.32;;
21503;SDS011;10913;51.992;9.228;2022-12-18T09:21:16;11.38;;;9.48;;
21503;SDS011;10913;51.992;9.228;2022-12-18T09:23:44;11.82;;;9.55;;
21503;SDS011;10913;51.992;9.228;2022-12-18T09:26:13;10.93;;;8.07;;
21503;SDS011;10913;51.992;9.228;2022-12-18T09:28:39;11.98;;;8.38;;
21503;SDS011;10913;51.992;9.228;2022-12-18T09:31:05;12.77;;;10.02;;
21503;SDS011;10913;51.992;9.228;2022-12-18T09:33:32;14.77;;;10.07;;
21503;SDS011;10913;51.992;9.228;2022-12-18T09:36:00;19.33;;;12.63;;
21503;SDS011;10913;51.992;9.228;2022-12-18T09:38:27;19.52;;;13.00;;
21503;SDS011;10913;51.992;9.228;2022-12-18T09:40:53;15.48;;;11.68;;
21503;SDS011;10913;51.992;9.228;2022-12-18T09:43:29;15.80;;;10.68;;
21503;SDS011;10913;51.992;9.228;2022-12-18T09:46:01;16.17;;;9.77;;
21503;SDS011;10913;51.992;9.228;2022-12-18T09:48:32;14.52;;;10.77;;
21503;SDS011;10913;51.992;9.228;2022-12-18T09:51:05;16.23;;;12.40;;
21503;SDS011;10913;51.992;9.228;2022-12-18T09:53:38;16.60;;;11.80;;
21503;SDS011;10913;51.992;9.228;2022-12-18T09:56:12;19.35;;;14.02;;
21503;SDS011;10913;51.992;9.228;2022-12-18T09:58:42;17.17;;;12.82;;
21503;SDS011;10913;51.992;9.228;2022-12-18T10:01:21;16.52;;;11.63;;
21503;SDS011;10913;51.992;9.228;2022-12-18T10:03:48;15.75;;;11.13;;
21503;SDS011;10913;51.992;9.228;2022-12-18T10:06:15;12.90;;;8.55;;
21503;SDS011;10913;51.992;9.228;2022-12-18T10:17:23;15.93;;;10.25;;
21503;SDS011;10913;51.992;9.228;2022-12-18T10:20:02;13.25;;;9.02;;
21503;SDS011;10913;51.992;9.228;2022-12-18T10:27:31;13.73;;;8.82;;
21503;SDS011;10913;51.992;9.228;2022-12-18T10:29:57;16.17;;;10.50;;
21503;SDS011;10913;51.992;9.228;2022-12-18T10:32:24;11.07;;;8.07;;
21503;SDS011;10913;51.992;9.228;2022-12-18T10:34:53;10.02;;;6.82;;
21503;SDS011;10913;51.992;9.228;2022-12-18T10:37:21;11.00;;;7.60;;
21503;SDS011;10913;51.992;9.228;2022-12-18T10:42:37;8.27;;;5.53;;
21503;SDS011;10913;51.992;9.228;2022-12-18T10:45:05;10.32;;;6.85;;
21503;SDS011;10913;51.992;9.228;2022-12-18T10:47:37;10.75;;;6.93;;
21503;SDS011;10913;51.992;9.228;2022-12-18T10:50:17;8.32;;;6.43;;
21503;SDS011;10913;51.992;9.228;2022-12-18T10:52:53;8.80;;;6.78;;
21503;SDS011;10913;51.992;9.228;2022-12-18T10:55:20;11.10;;;6.90;;
21503;SDS011;10913;51.992;9.228;2022-12-18T10:57:45;9.27;;;6.75;;
21503;SDS011;10913;51.992;9.228;2022-12-18T11:02:48;9.88;;;7.30;;
21503;SDS011;10913;51.992;9.228;2022-12-18T11:05:24;11.32;;;7.18;;
21503;SDS011;10913;51.992;9.228;2022-12-18T11:07:52;9.75;;;6.90;;
21503;SDS011;10913;51.992;9.228;2022-12-18T11:10:19;10.60;;;6.88;;
21503;SDS011;10913;51.992;9.228;2022-12-18T11:12:55;10.73;;;8.13;;
21503;SDS011;10913;51.992;9.228;2022-12-18T11:15:26;11.02;;;6.88;;
21503;SDS011;10913;51.992;9.228;2022-12-18T11:17:54;8.77;;;6.35;;
21503;SDS011;10913;51.992;9.228;2022-12-18T11:23:00;8.60;;;5.95;;
21503;SDS011;10913;51.992;9.228;2022-12-18T11:25:29;9.95;;;6.57;;
21503;SDS011;10913;51.992;9.228;2022-12-18T11:28:02;7.28;;;5.57;;
21503;SDS011;10913;51.992;9.228;2022-12-18T11:33:02;7.07;;;5.70;;
21503;SDS011;10913;51.992;9.228;2022-12-18T11:35:38;8.82;;;5.68;;
21503;SDS011;10913;51.992;9.228;2022-12-18T11:38:32;9.00;;;5.63;;
21503;SDS011;10913;51.992;9.228;2022-12-18T11:43:50;10.30;;;5.90;;
21503;SDS011;10913;51.992;9.228;2022-12-18T11:46:25;9.82;;;6.72;;
21503;SDS011;10913;51.992;9.228;2022-12-18T11:49:01;11.35;;;6.88;;
21503;SDS011;10913;51.992;9.228;2022-12-18T11:51:43;16.60;;;9.77;;
21503;SDS011;10913;51.992;9.228;2022-12-18T11:54:15;15.27;;;9.00;;
21503;SDS011;10913;51.992;9.228;2022-12-18T11:56:55;13.05;;;8.35;;
21503;SDS011;10913;51.992;9.228;2022-12-18T12:05:29;8.17;;;6.43;;
21503;SDS011;10913;51.992;9.228;2022-12-18T12:18:50;9.15;;;6.18;;
21503;SDS011;10913;51.992;9.228;2022-12-18T12:26:45;10.05;;;7.32;;
21503;SDS011;10913;51.992;9.228;2022-12-18T12:29:25;11.25;;;7.63;;
21503;SDS011;10913;51.992;9.228;2022-12-18T12:32:00;9.80;;;6.68;;
21503;SDS011;10913;51.992;9.228;2022-12-18T12:37:25;7.75;;;5.82;;
21503;SDS011;10913;51.992;9.228;2022-12-18T12:40:06;9.93;;;7.05;;
21503;SDS011;10913;51.992;9.228;2022-12-18T12:42:38;8.05;;;6.18;;
21503;SDS011;10913;51.992;9.228;2022-12-18T12:46:08;8.88;;;6.03;;
21503;SDS011;10913;51.992;9.228;2022-12-18T12:48:40;9.05;;;5.40;;
21503;SDS011;10913;51.992;9.228;2022-12-18T12:51:21;9.98;;;5.35;;
21503;SDS011;10913;51.992;9.228;2022-12-18T12:53:53;10.23;;;6.50;;
21503;SDS011;10913;51.992;9.228;2022-12-18T12:56:21;9.15;;;6.25;;
21503;SDS011;10913;51.992;9.228;2022-12-18T13:01:40;11.50;;;7.07;;
21503;SDS011;10913;51.992;9.228;2022-12-18T13:07:12;8.88;;;6.72;;
21503;SDS011;10913;51.992;9.228;2022-12-18T13:12:59;9.60;;;6.25;;
21503;SDS011;10913;51.992;9.228;2022-12-18T13:15:25;10.48;;;6.40;;
21503;SDS011;10913;51.992;9.228;2022-12-18T13:20:33;10.77;;;6.82;;
21503;SDS011;10913;51.992;9.228;2022-12-18T13:23:01;9.02;;;6.20;;
21503;SDS011;10913;51.992;9.228;2022-12-18T13:25:43;11.73;;;7.65;;
21503;SDS011;10913;51.992;9.228;2022-12-18T13:28:10;17.60;;;12.20;;
21503;SDS011;10913;51.992;9.228;2022-12-18T13:38:34;10.52;;;7.57;;
21503;SDS011;10913;51.992;9.228;2022-12-18T13:43:39;10.25;;;7.88;;
21503;SDS011;10913;51.992;9.228;2022-12-18T13:51:49;10.75;;;7.15;;
21503;SDS011;10913;51.992;9.228;2022-12-18T13:54:36;13.93;;;8.60;;
21503;SDS011;10913;51.992;9.228;2022-12-18T13:57:04;11.82;;;7.78;;
21503;SDS011;10913;51.992;9.228;2022-12-18T13:59:48;15.38;;;8.95;;
21503;SDS011;10913;51.992;9.228;2022-12-18T14:02:15;15.65;;;9.68;;
21503;SDS011;10913;51.992;9.228;2022-12-18T14:04:44;10.02;;;6.22;;
21503;SDS011;10913;51.992;9.228;2022-12-18T14:07:18;10.48;;;6.78;;
21503;SDS011;10913;51.992;9.228;2022-12-18T14:09:47;10.50;;;6.45;;
21503;SDS011;10913;51.992;9.228;2022-12-18T14:12:16;9.70;;;6.68;;
21503;SDS011;10913;51.992;9.228;2022-12-18T14:15:06;11.82;;;8.45;;
21503;SDS011;10913;51.992;9.228;2022-12-18T14:17:46;15.02;;;9.65;;
21503;SDS011;10913;51.992;9.228;2022-12-18T14:20:14;19.20;;;12.57;;
21503;SDS011;10913;51.992;9.228;2022-12-18T14:22:42;15.32;;;9.90;;
21503;SDS011;10913;51.992;9.228;2022-12-18T14:25:14;14.82;;;9.30;;
21503;SDS011;10913;51.992;9.228;2022-12-18T14:27:47;10.43;;;7.25;;
21503;SDS011;10913;51.992;9.228;2022-12-18T14:33:05;11.27;;;7.15;;
21503;SDS011;10913;51.992;9.228;2022-12-18T14:35:34;11.98;;;7.93;;
21503;SDS011;10913;51.992;9.228;2022-12-18T14:38:20;11.75;;;7.15;;
21503;SDS011;10913;51.992;9.228;2022-12-18T14:43:25;12.63;;;8.82;;
21503;SDS011;10913;51.992;9.228;2022-12-18T14:45:51;13.27;;;8.73;;
21503;SDS011;10913;51.992;9.228;2022-12-18T14:48:19;15.20;;;9.82;;
21503;SDS011;10913;51.992;9.228;2022-12-18T14:50:55;17.88;;;11.85;;
21503;SDS011;10913;51.992;9.228;2022-12-18T14:56:18;11.63;;;8.55;;
21503;SDS011;10913;51.992;9.228;2022-12-18T15:01:26;10.57;;;7.43;;
21503;SDS011;10913;51.992;9.228;2022-12-18T15:03:54;11.43;;;8.70;;
21503;SDS011;10913;51.992;9.228;2022-12-18T15:06:25;9.80;;;7.95;;
21503;SDS011;10913;51.992;9.228;2022-12-18T15:08:53;11.05;;;7.43;;
21503;SDS011;10913;51.992;9.228;2022-12-18T15:11:29;10.55;;;7.35;;
21503;SDS011;10913;51.992;9.228;2022-12-18T15:13:58;11.73;;;7.47;;
21503;SDS011;10913;51.992;9.228;2022-12-18T15:16:25;11.70;;;8.02;;
21503;SDS011;10913;51.992;9.228;2022-12-18T15:18:51;10.85;;;7.05;;
21503;SDS011;10913;51.992;9.228;2022-12-18T15:21:18;10.10;;;7.38;;
21503;SDS011;10913;51.992;9.228;2022-12-18T15:23:51;12.70;;;8.30;;
21503;SDS011;10913;51.992;9.228;2022-12-18T15:26:18;11.60;;;8.43;;
21503;SDS011;10913;51.992;9.228;2022-12-18T15:28:47;11.80;;;7.65;;
21503;SDS011;10913;51.992;9.228;2022-12-18T15:36:17;12.18;;;8.75;;
21503;SDS011;10913;51.992;9.228;2022-12-18T15:38:46;12.05;;;8.68;;
21503;SDS011;10913;51.992;9.228;2022-12-18T15:41:15;12.20;;;8.38;;
21503;SDS011;10913;51.992;9.228;2022-12-18T15:43:42;9.77;;;6.38;;
21503;SDS011;10913;51.992;9.228;2022-12-18T15:46:13;9.63;;;6.40;;
21503;SDS011;10913;51.992;9.228;2022-12-18T15:48:44;10.20;;;6.78;;
21503;SDS011;10913;51.992;9.228;2022-12-18T15:51:20;9.98;;;6.95;;
21503;SDS011;10913;51.992;9.228;2022-12-18T15:53:48;11.60;;;7.72;;
21503;SDS011;10913;51.992;9.228;2022-12-18T15:56:17;12.30;;;7.70;;
21503;SDS011;10913;51.992;9.228;2022-12-18T15:59:02;12.63;;;8.90;;
21503;SDS011;10913;51.992;9.228;2022-12-18T16:01:29;12.07;;;8.15;;
21503;SDS011;10913;51.992;9.228;2022-12-18T16:03:56;11.27;;;7.55;;
21503;SDS011;10913;51.992;9.228;2022-12-18T16:06:21;15.35;;;10.00;;
21503;SDS011;10913;51.992;9.228;2022-12-18T16:08:48;13.82;;;8.40;;
21503;SDS011;10913;51.992;9.228;2022-12-18T16:11:24;13.52;;;10.05;;
21503;SDS011;10913;51.992;9.228;2022-12-18T16:14:11;12.77;;;8.38;;
21503;SDS011;10913;51.992;9.228;2022-12-18T16:16:43;12.88;;;8.65;;
21503;SDS011;10913;51.992;9.228;2022-12-18T16:19:10;16.58;;;9.55;;
21503;SDS011;10913;51.992;9.228;2022-12-18T16:21:35;13.88;;;9.15;;
21503;SDS011;10913;51.992;9.228;2022-12-18T16:24:00;10.13;;;7.57;;
21503;SDS011;10913;51.992;9.228;2022-12-18T16:26:26;13.02;;;8.45;;
21503;SDS011;10913;51.992;9.228;2022-12-18T16:28:51;11.55;;;7.95;;
21503;SDS011;10913;51.992;9.228;2022-12-18T16:31:18;11.00;;;7.72;;
21503;SDS011;10913;51.992;9.228;2022-12-18T16:33:43;11.75;;;8.25;;
21503;SDS011;10913;51.992;9.228;2022-12-18T16:36:08;12.85;;;8.35;;
21503;SDS011;10913;51.992;9.228;2022-12-18T16:38:34;12.38;;;6.82;;
21503;SDS011;10913;51.992;9.228;2022-12-18T16:40:59;9.95;;;7.30;;
21503;SDS011;10913;51.992;9.228;2022-12-18T16:43:43;10.43;;;7.18;;
21503;SDS011;10913;51.992;9.228;2022-12-18T16:46:08;11.57;;;7.80;;